Artondale, Washington
Current Conditions -  °F | °C
As of 7:53 AM on Friday 19 Dec 2014 (Local Time) from KTIW Reporting Station
Overcast Overcast  
Wind Chill: 41°   Ceiling: 5000
Heat Index: 47°   Visibility: 10mi
Dew Point: 40°   Wind: 15mph
Humidity: 77%   Direction: 180°S
Pressure: 29.88"   Gusts: NA
Location:  47.2986°N, 122.616°W
Report Text: KTIW 191553Z 18013KT 10SM SCT041 BKN050 OVC060 08/04 A2988 RMK AO2 SLP119 T00830044
Loading
Personal Weather Stations






























Interactive Weather Map New forecast layout! Learn more

10-Day Weather Forecast

Advertisements
Track Severe Weather on mobile